Time;durP1;ratioP1;P1;durP2;ratioP2;P2;SDS_P1;SDS_P2;PMS_P1;PMS_P2;Temp;Humidity;BMP_temperature;BMP_pressure;BME280_temperature;BME280_humidity;BME280_pressure;Samples;Min_cycle;Max_cycle;Signal;HPM_P1;HPM_P2
2022/04/03 00:00:48;;;;;;;10.38;5.53;;;;;;;1.36;84.42;101987.22;10167433;28;20421;-66
2022/04/03 00:05:45;;;;;;;9.73;5.07;;;;;;;1.43;85.26;101985.28;10166289;28;20582;-66
2022/04/03 00:10:45;;;;;;;11.02;5.55;;;;;;;1.34;91.11;101975.84;10178031;28;20046;-65
2022/04/03 00:15:42;;;;;;;9.30;5.18;;;;;;;1.25;94.09;101971.81;10181022;28;20077;-66
2022/04/03 00:20:41;;;;;;;13.90;5.50;;;;;;;1.24;95.79;101971.00;10184830;28;20134;-66
2022/04/03 00:25:38;;;;;;;21.63;10.10;;;;;;;1.32;94.97;101974.44;10180598;28;20050;-66
2022/04/03 00:30:34;;;;;;;16.05;6.50;;;;;;;1.38;97.37;101971.66;10186070;28;20562;-65
2022/04/03 00:35:31;;;;;;;12.07;5.72;;;;;;;1.36;100.00;101964.84;10184804;28;20062;-65
2022/04/03 00:40:27;;;;;;;9.50;5.43;;;;;;;1.37;100.00;101964.63;10193326;28;20491;-65
2022/04/03 00:45:24;;;;;;;10.80;5.22;;;;;;;1.34;100.00;101958.88;10187654;28;20050;-66
2022/04/03 00:50:21;;;;;;;11.23;5.13;;;;;;;1.31;100.00;101956.63;10158216;28;20089;-65
2022/04/03 00:55:18;;;;;;;12.05;5.45;;;;;;;1.25;100.00;101952.94;10185028;28;20133;-67
2022/04/03 01:00:14;;;;;;;12.02;5.30;;;;;;;1.19;100.00;101949.28;10186605;28;20085;-66
2022/04/03 01:05:11;;;;;;;10.27;5.45;;;;;;;1.22;100.00;101948.84;10186770;28;20077;-66
2022/04/03 01:10:08;;;;;;;8.38;5.43;;;;;;;1.32;100.00;101940.22;10160706;28;20559;-66
2022/04/03 01:15:04;;;;;;;15.02;5.25;;;;;;;1.31;100.00;101932.38;10191658;28;20054;-66
2022/04/03 01:20:01;;;;;;;9.80;4.88;;;;;;;1.29;100.00;101935.28;10175477;28;20082;-66
2022/04/03 01:24:58;;;;;;;11.73;5.18;;;;;;;1.22;100.00;101926.47;10178993;28;20074;-65
2022/04/03 01:29:57;;;;;;;9.70;4.63;;;;;;;1.18;100.00;101927.94;10182189;28;20096;-66
2022/04/03 01:34:53;;;;;;;9.82;4.45;;;;;;;1.20;100.00;101915.09;10192291;28;20045;-66
2022/04/03 01:39:50;;;;;;;11.65;4.75;;;;;;;1.13;100.00;101915.16;10189308;28;20097;-65
2022/04/03 01:44:46;;;;;;;11.98;5.85;;;;;;;1.12;100.00;101912.72;10186111;28;20082;-65
2022/04/03 01:49:43;;;;;;;8.35;4.22;;;;;;;1.17;100.00;101910.16;10186867;28;20100;-66
2022/04/03 01:54:39;;;;;;;8.77;4.10;;;;;;;1.25;100.00;101912.53;10176919;28;20046;-65
2022/04/03 01:59:36;;;;;;;9.25;4.25;;;;;;;1.17;100.00;101910.16;10187985;28;20053;-65
2022/04/03 02:04:32;;;;;;;6.90;3.53;;;;;;;1.19;100.00;101916.97;10189069;28;20613;-65
2022/04/03 02:09:30;;;;;;;9.13;4.38;;;;;;;1.11;100.00;101911.06;10187642;28;20045;-64
2022/04/03 02:14:26;;;;;;;15.15;4.50;;;;;;;1.27;100.00;101900.47;10192030;28;20100;-65
2022/04/03 02:19:23;;;;;;;9.23;4.22;;;;;;;1.31;100.00;101895.47;10181761;28;20092;-66
2022/04/03 02:24:19;;;;;;;7.82;3.88;;;;;;;1.29;100.00;101897.56;10179914;28;20113;-66
2022/04/03 02:29:16;;;;;;;11.98;4.43;;;;;;;1.30;100.00;101898.38;10183019;28;20553;-65
2022/04/03 02:34:13;;;;;;;9.38;4.30;;;;;;;1.22;100.00;101891.44;10182422;28;20112;-64
2022/04/03 02:39:10;;;;;;;10.65;5.03;;;;;;;1.24;100.00;101900.13;10179340;28;20088;-65
2022/04/03 02:44:06;;;;;;;14.75;4.60;;;;;;;1.14;100.00;101899.81;10182972;28;20046;-66
2022/04/03 02:49:03;;;;;;;9.05;4.03;;;;;;;1.04;100.00;101890.41;10172711;28;20045;-66
2022/04/03 02:53:59;;;;;;;9.77;3.67;;;;;;;1.16;100.00;101889.63;10190156;28;20054;-66
2022/04/03 02:58:56;;;;;;;7.90;4.32;;;;;;;1.01;100.00;101890.84;10179785;28;20337;-66
2022/04/03 03:03:52;;;;;;;7.93;3.80;;;;;;;0.99;100.00;101882.16;10184117;28;20049;-68
2022/04/03 03:08:49;;;;;;;10.15;4.05;;;;;;;0.98;100.00;101891.31;10177036;28;20069;-67
2022/04/03 03:13:46;;;;;;;12.15;3.65;;;;;;;0.93;100.00;101883.09;10189405;28;20046;-68
2022/04/03 03:18:44;;;;;;;6.53;3.53;;;;;;;0.91;100.00;101879.78;10180055;28;20046;-68
2022/04/03 03:23:40;;;;;;;7.50;3.50;;;;;;;0.92;100.00;101876.03;10185450;28;20070;-67
2022/04/03 03:28:37;;;;;;;10.43;3.80;;;;;;;0.97;100.00;101873.50;10179409;28;20541;-68
2022/04/03 03:33:34;;;;;;;9.07;3.38;;;;;;;0.79;100.00;101868.09;10183434;28;20507;-69
2022/04/03 03:38:31;;;;;;;10.05;3.65;;;;;;;0.99;100.00;101863.31;10182344;28;20100;-68
2022/04/03 03:43:27;;;;;;;8.38;3.72;;;;;;;1.08;100.00;101863.84;10185440;28;20042;-69
2022/04/03 03:48:24;;;;;;;7.90;3.70;;;;;;;1.10;100.00;101863.63;10179284;28;20551;-68
2022/04/03 03:53:20;;;;;;;7.93;3.85;;;;;;;0.98;100.00;101856.28;10158269;28;20642;-67
2022/04/03 03:58:17;;;;;;;9.07;3.63;;;;;;;0.95;100.00;101858.59;10179633;28;20081;-68
2022/04/03 04:03:14;;;;;;;9.13;3.80;;;;;;;0.92;100.00;101854.50;10178061;28;20058;-68
2022/04/03 04:08:10;;;;;;;12.02;4.15;;;;;;;0.83;100.00;101851.28;10164436;28;20054;-68
2022/04/03 04:13:07;;;;;;;8.75;3.50;;;;;;;0.59;100.00;101853.00;10183932;28;20092;-69
2022/04/03 04:18:03;;;;;;;8.63;3.53;;;;;;;0.72;100.00;101848.50;10187042;28;20092;-68
2022/04/03 04:23:00;;;;;;;8.60;3.60;;;;;;;0.77;100.00;101840.63;10195367;28;20046;-68
2022/04/03 04:27:56;;;;;;;8.23;3.80;;;;;;;0.79;100.00;101854.63;10159206;28;20050;-70
2022/04/03 04:32:53;;;;;;;9.30;4.55;;;;;;;0.72;100.00;101848.50;10195534;28;20053;-70
2022/04/03 04:37:52;;;;;;;6.82;3.38;;;;;;;0.59;100.00;101844.94;10164084;28;20046;-70
2022/04/03 04:42:49;;;;;;;9.40;4.18;;;;;;;0.75;100.00;101831.94;10187248;28;20535;-70
2022/04/03 04:47:48;;;;;;;7.97;3.70;;;;;;;0.67;100.00;101834.91;10179509;28;20089;-70
2022/04/03 04:52:44;;;;;;;8.75;3.60;;;;;;;0.63;100.00;101834.56;10194930;28;20132;-70
2022/04/03 04:57:41;;;;;;;8.20;3.65;;;;;;;0.65;100.00;101831.63;10192405;28;20157;-70
2022/04/03 05:02:37;;;;;;;12.95;4.40;;;;;;;0.52;100.00;101833.41;10168277;28;20117;-69
2022/04/03 05:07:34;;;;;;;9.13;3.70;;;;;;;0.54;100.00;101825.94;10172620;28;20549;-69
2022/04/03 05:12:31;;;;;;;7.60;3.50;;;;;;;0.54;100.00;101841.28;10174954;28;20092;-69
2022/04/03 05:17:28;;;;;;;15.32;5.47;;;;;;;0.59;100.00;101834.16;10174909;28;20081;-68
2022/04/03 05:22:26;;;;;;;9.30;3.80;;;;;;;0.55;100.00;101827.56;10172453;28;20663;-69
2022/04/03 05:27:22;;;;;;;9.95;4.20;;;;;;;0.58;100.00;101827.16;10172113;28;20504;-69
2022/04/03 05:32:28;;;;;;;9.57;3.78;;;;;;;0.61;100.00;101829.38;10167095;28;20049;-69
2022/04/03 05:37:26;;;;;;;8.30;3.72;;;;;;;0.74;100.00;101836.50;10164349;28;20050;-69
2022/04/03 05:42:23;;;;;;;8.13;3.72;;;;;;;0.81;100.00;101836.41;10162923;28;20137;-69
2022/04/03 05:47:20;;;;;;;9.50;3.42;;;;;;;0.76;100.00;101842.44;10174283;28;20443;-69
2022/04/03 05:52:17;;;;;;;10.43;3.63;;;;;;;1.10;100.00;101834.00;10168156;28;20050;-70
2022/04/03 05:57:14;;;;;;;6.65;3.35;;;;;;;1.20;100.00;101840.47;10171394;28;20631;-69
2022/04/03 06:02:12;;;;;;;7.47;3.70;;;;;;;1.31;100.00;101841.56;10170378;28;20050;-70
2022/04/03 06:07:09;;;;;;;7.43;3.38;;;;;;;1.51;100.00;101845.84;10166210;28;20046;-70
2022/04/03 06:12:06;;;;;;;7.50;2.85;;;;;;;1.59;100.00;101849.06;10165473;28;20760;-69
2022/04/03 06:17:03;;;;;;;7.57;2.90;;;;;;;1.70;100.00;101844.75;10171831;28;20089;-70
2022/04/03 06:21:59;;;;;;;6.53;2.88;;;;;;;1.76;100.00;101843.00;10167057;28;20551;-70
2022/04/03 06:26:56;;;;;;;8.05;3.30;;;;;;;1.82;100.00;101842.91;10181900;28;20046;-69
2022/04/03 06:31:52;;;;;;;6.10;2.80;;;;;;;1.89;100.00;101853.59;10170449;28;20050;-68
2022/04/03 06:36:49;;;;;;;11.13;3.00;;;;;;;1.76;100.00;101838.41;10160432;28;20077;-70
2022/04/03 06:41:45;;;;;;;7.15;3.53;;;;;;;2.09;100.00;101843.28;10159613;28;20098;-70
2022/04/03 06:46:42;;;;;;;8.57;2.88;;;;;;;2.10;100.00;101844.94;10152429;28;20137;-69
2022/04/03 06:51:39;;;;;;;5.78;2.83;;;;;;;2.15;100.00;101841.53;10166739;28;20069;-70
2022/04/03 06:56:36;;;;;;;10.15;3.20;;;;;;;2.13;100.00;101843.63;10158608;28;20136;-70
2022/04/03 07:01:32;;;;;;;6.72;2.85;;;;;;;2.23;100.00;101838.50;10162864;28;20512;-70
2022/04/03 07:06:29;;;;;;;6.80;2.88;;;;;;;2.10;100.00;101844.09;10156154;28;20137;-70
2022/04/03 07:11:25;;;;;;;5.63;2.90;;;;;;;2.27;100.00;101845.03;10159158;28;20088;-70
2022/04/03 07:16:22;;;;;;;7.15;3.13;;;;;;;2.20;100.00;101847.03;10160687;28;20074;-70
2022/04/03 07:21:18;;;;;;;7.13;2.70;;;;;;;2.30;100.00;101844.59;10172870;28;20133;-70
2022/04/03 07:26:15;;;;;;;5.82;3.08;;;;;;;2.52;100.00;101841.28;10160828;28;20567;-71
2022/04/03 07:31:13;;;;;;;7.38;2.92;;;;;;;2.56;100.00;101842.47;10154187;28;20050;-70
2022/04/03 07:36:09;;;;;;;8.13;2.67;;;;;;;2.67;100.00;101838.94;10161146;28;20133;-67
2022/04/03 07:41:05;;;;;;;6.72;3.10;;;;;;;2.79;100.00;101840.78;10164997;28;20103;-68
2022/04/03 07:46:02;;;;;;;8.25;2.88;;;;;;;2.57;100.00;101854.91;10165484;28;20463;-66
2022/04/03 07:50:59;;;;;;;9.15;3.33;;;;;;;2.58;100.00;101856.56;10164386;28;20506;-66
2022/04/03 07:56:01;;;;;;;9.10;3.85;;;;;;;2.67;100.00;101871.34;10171396;28;20132;-67
2022/04/03 08:00:58;;;;;;;8.10;2.92;;;;;;;2.77;100.00;101875.31;10166833;28;20084;-67
2022/04/03 08:05:55;;;;;;;6.70;3.53;;;;;;;2.58;100.00;101864.66;10169103;28;20049;-66
2022/04/03 08:10:51;;;;;;;6.70;3.63;;;;;;;2.71;100.00;101850.88;10196692;28;20136;-65
2022/04/03 08:15:48;;;;;;;9.63;3.67;;;;;;;2.79;100.00;101851.59;10182388;28;20129;-69
2022/04/03 08:20:45;;;;;;;6.22;3.10;;;;;;;2.95;100.00;101861.66;10161751;28;20140;-66
2022/04/03 08:25:44;;;;;;;6.82;3.05;;;;;;;3.11;100.00;101849.25;10175053;28;20136;-61
2022/04/03 08:30:41;;;;;;;6.57;3.50;;;;;;;3.55;100.00;101850.41;10170352;28;20089;-62
2022/04/03 08:35:38;;;;;;;7.95;3.75;;;;;;;3.79;100.00;101864.59;10175440;28;20080;-62
2022/04/03 08:40:36;;;;;;;7.05;2.65;;;;;;;3.71;100.00;101865.03;10170296;28;20058;-61
2022/04/03 08:45:32;;;;;;;5.57;2.15;;;;;;;3.32;100.00;101862.13;10166533;28;20042;-60
2022/04/03 08:50:33;;;;;;;5.68;1.95;;;;;;;3.29;100.00;101867.19;10171564;28;20537;-61
2022/04/03 08:55:30;;;;;;;4.15;2.13;;;;;;;3.46;100.00;101857.25;10164411;28;20038;-61
2022/04/03 09:00:26;;;;;;;5.90;2.42;;;;;;;3.55;100.00;101853.09;10168148;28;20112;-61
2022/04/03 09:05:37;;;;;;;8.55;2.83;;;;;;;3.64;100.00;101849.97;10173582;28;20046;-61
2022/04/03 09:10:35;;;;;;;5.28;2.50;;;;;;;3.80;100.00;101843.78;10178252;28;20086;-61
2022/04/03 09:15:32;;;;;;;4.38;2.38;;;;;;;4.08;100.00;101842.06;10187113;28;20100;-61
2022/04/03 09:20:31;;;;;;;5.22;2.03;;;;;;;4.70;100.00;101844.59;10170180;28;20531;-61
2022/04/03 09:25:33;;;;;;;7.38;2.55;;;;;;;5.11;100.00;101830.75;10144689;28;20069;-61
2022/04/03 09:30:34;;;;;;;8.27;2.70;;;;;;;5.00;100.00;101840.63;10146397;28;20046;-63
2022/04/03 09:35:36;;;;;;;7.22;2.35;;;;;;;4.99;100.00;101830.84;10158377;28;20066;-63
2022/04/03 09:40:35;;;;;;;10.10;2.25;;;;;;;5.26;100.00;101820.88;10151034;28;20210;-64
2022/04/03 09:45:32;;;;;;;5.53;1.80;;;;;;;5.45;100.00;101823.22;10153722;28;20065;-61
2022/04/03 09:50:28;;;;;;;5.88;2.05;;;;;;;5.32;100.00;101813.63;10158838;28;20129;-61
2022/04/03 09:55:28;;;;;;;8.95;1.50;;;;;;;5.37;100.00;101821.00;10174958;28;20156;-61
2022/04/03 10:00:32;;;;;;;8.88;1.80;;;;;;;5.84;100.00;101810.28;10182958;28;20077;-61
2022/04/03 10:05:30;;;;;;;8.27;2.45;;;;;;;6.38;100.00;101816.66;10168413;28;20217;-61
2022/04/03 10:10:28;;;;;;;6.85;1.63;;;;;;;6.91;100.00;101790.28;10161144;28;20081;-61
2022/04/03 10:15:25;;;;;;;4.85;1.30;;;;;;;6.94;100.00;101778.88;10164583;28;20484;-61
2022/04/03 10:20:28;;;;;;;8.27;1.88;;;;;;;6.51;100.00;101786.31;10165134;28;20084;-62
2022/04/03 10:25:29;;;;;;;4.68;1.33;;;;;;;6.29;100.00;101784.56;10153992;28;20115;-61
2022/04/03 10:30:37;;;;;;;5.20;1.80;;;;;;;6.24;100.00;101770.13;10161326;28;20571;-63
2022/04/03 10:35:36;;;;;;;8.27;1.55;;;;;;;6.23;100.00;101768.50;10151118;28;20472;-62
2022/04/03 10:40:35;;;;;;;5.63;1.30;;;;;;;6.15;100.00;101768.97;10174597;28;20692;-62
2022/04/03 10:45:52;;;;;;;7.57;1.38;;;;;;;5.59;100.00;101789.19;10159615;28;20074;-62
2022/04/03 10:51:11;;;;;;;7.10;1.90;;;;;;;5.20;100.00;101805.63;10172710;28;20084;-62
2022/04/03 10:56:19;;;;;;;8.85;1.35;;;;;;;4.46;100.00;101811.50;10141042;28;20054;-62
2022/04/03 11:01:26;;;;;;;6.22;1.30;;;;;;;4.17;100.00;101806.19;10142396;28;20141;-62
2022/04/03 11:06:25;;;;;;;4.15;1.13;;;;;;;4.26;100.00;101798.50;10146698;28;20046;-62
2022/04/03 11:11:41;;;;;;;5.07;1.55;;;;;;;4.58;100.00;101787.00;10144349;28;20056;-62
2022/04/03 11:16:55;;;;;;;5.70;1.05;;;;;;;5.83;100.00;101769.84;10152702;28;20480;-62
2022/04/03 11:21:52;;;;;;;4.43;1.20;;;;;;;7.67;100.00;101758.84;10151090;28;20046;-62
2022/04/03 11:26:48;;;;;;;3.85;1.17;;;;;;;8.84;100.00;101749.56;10150432;28;20058;-61
2022/04/03 11:31:46;;;;;;;5.95;1.15;;;;;;;9.51;100.00;101740.94;10154349;28;20058;-62
2022/04/03 11:36:42;;;;;;;4.72;0.85;;;;;;;9.41;99.28;101734.44;10155317;28;20701;-62
2022/04/03 11:41:39;;;;;;;5.90;0.80;;;;;;;9.85;87.23;101725.34;10155220;28;20489;-62
2022/04/03 11:46:43;;;;;;;2.47;0.70;;;;;;;10.64;79.67;101718.72;10154559;28;20046;-62
2022/04/03 11:51:40;;;;;;;4.20;0.80;;;;;;;11.25;78.36;101706.09;10153926;28;20046;-62
2022/04/03 11:56:37;;;;;;;5.95;0.80;;;;;;;10.89;67.64;101710.19;10163771;28;20468;-62
2022/04/03 12:01:50;;;;;;;2.30;0.70;;;;;;;10.66;62.68;101706.38;10161689;28;20129;-62
2022/04/03 12:06:48;;;;;;;3.50;0.55;;;;;;;8.36;81.42;101720.03;10151912;28;20042;-61
2022/04/03 12:11:51;;;;;;;4.80;0.90;;;;;;;7.92;100.00;101714.44;10155979;28;20431;-62
2022/04/03 12:16:55;;;;;;;6.40;0.93;;;;;;;7.65;100.00;101709.31;10158634;28;20120;-61
2022/04/03 12:21:57;;;;;;;3.08;0.88;;;;;;;8.06;100.00;101712.78;10152360;28;20519;-62
2022/04/03 12:27:05;;;;;;;8.07;1.20;;;;;;;8.20;100.00;101686.56;10156401;28;20046;-62
2022/04/03 12:32:04;;;;;;;4.10;0.88;;;;;;;8.51;100.00;101680.22;10146285;28;20054;-62
2022/04/03 12:37:02;;;;;;;7.13;1.60;;;;;;;7.91;100.00;101702.72;10160010;28;20077;-62
2022/04/03 12:42:22;;;;;;;5.00;0.80;;;;;;;7.18;100.00;101724.81;10156577;28;20081;-62
2022/04/03 12:47:30;;;;;;;3.28;0.60;;;;;;;6.20;100.00;101736.44;10147721;28;20065;-62
2022/04/03 12:52:40;;;;;;;2.83;0.80;;;;;;;6.13;100.00;101720.38;10152045;28;20049;-62
2022/04/03 13:02:54;;;;;;;7.30;1.90;;;;;;;6.20;100.00;101706.59;10157687;28;20155;-65
2022/04/03 13:07:50;;;;;;;7.05;1.30;;;;;;;6.55;100.00;101700.47;10151995;28;20061;-64
2022/04/03 13:12:50;;;;;;;6.40;2.20;;;;;;;7.00;100.00;101692.69;10149849;28;20054;-65
2022/04/03 13:17:47;;;;;;;9.70;1.20;;;;;;;8.72;100.00;101689.09;10154440;28;20453;-65
2022/04/03 13:22:43;;;;;;;5.47;1.02;;;;;;;8.93;99.53;101700.69;10153717;28;20579;-65
2022/04/03 13:27:42;;;;;;;6.60;2.17;;;;;;;10.16;94.17;101675.00;10142068;28;20045;-65
2022/04/03 13:32:38;;;;;;;3.58;0.60;;;;;;;10.02;86.68;101674.88;10140588;28;20077;-65
2022/04/03 13:37:34;;;;;;;4.10;1.00;;;;;;;10.48;72.34;101666.16;10153683;28;20089;-65
2022/04/03 13:42:32;;;;;;;2.67;0.45;;;;;;;10.86;63.87;101649.75;10155831;28;20078;-65
2022/04/03 13:47:29;;;;;;;1.55;0.40;;;;;;;11.55;58.03;101639.84;10150398;28;20054;-65
2022/04/03 13:52:25;;;;;;;3.42;0.57;;;;;;;11.62;54.40;101644.13;10155809;28;20097;-64
2022/04/03 13:57:22;;;;;;;5.35;0.68;;;;;;;9.71;69.10;101645.19;10150939;28;20128;-65
2022/04/03 14:02:18;;;;;;;2.75;0.63;;;;;;;9.52;82.45;101674.31;10153419;28;20080;-65
2022/04/03 14:07:15;;;;;;;2.83;0.57;;;;;;;9.22;87.13;101640.75;10158162;28;20141;-64
2022/04/03 14:12:14;;;;;;;2.00;0.20;;;;;;;9.12;83.14;101646.25;10157046;28;20050;-64
2022/04/03 14:17:11;;;;;;;2.67;0.43;;;;;;;9.33;84.14;101622.34;10151186;28;20097;-64
2022/04/03 14:22:08;;;;;;;2.63;0.50;;;;;;;10.64;66.00;101637.50;10153441;28;20444;-64
2022/04/03 14:27:04;;;;;;;3.45;0.60;;;;;;;9.75;68.92;101632.59;10159947;28;20050;-65
2022/04/03 14:32:01;;;;;;;4.10;1.17;;;;;;;10.37;67.16;101610.78;10165800;28;20054;-64
2022/04/03 14:36:58;;;;;;;2.38;0.50;;;;;;;9.84;69.95;101616.34;10148491;28;20046;-64
2022/04/03 14:41:55;;;;;;;3.38;1.02;;;;;;;9.66;69.63;101631.59;10163161;28;20049;-65
2022/04/03 14:46:52;;;;;;;2.92;0.55;;;;;;;9.79;64.50;101614.50;10160394;28;20150;-64
2022/04/03 14:51:49;;;;;;;2.65;0.50;;;;;;;10.32;57.07;101592.53;10156260;28;20082;-65
2022/04/03 14:56:45;;;;;;;4.32;0.68;;;;;;;9.59;59.26;101596.44;10144700;28;20130;-68
2022/04/03 15:01:42;;;;;;;2.80;0.40;;;;;;;9.71;57.10;101593.28;10154016;28;20050;-68
2022/04/03 15:06:39;;;;;;;2.78;0.50;;;;;;;9.93;57.04;101600.13;10152254;28;20092;-67
2022/04/03 15:11:35;;;;;;;3.47;1.15;;;;;;;9.82;55.96;101583.88;10152312;28;20057;-67
2022/04/03 15:16:32;;;;;;;2.75;0.70;;;;;;;9.94;59.03;101583.47;10148644;28;20792;-68
2022/04/03 15:21:28;;;;;;;4.45;0.90;;;;;;;10.36;60.19;101581.03;10142986;28;20061;-68
2022/04/03 15:26:25;;;;;;;6.32;1.30;;;;;;;10.71;57.44;101566.81;10151363;28;20042;-68
2022/04/03 15:31:22;;;;;;;3.22;0.75;;;;;;;10.14;55.86;101574.19;10152434;28;20096;-68
2022/04/03 15:36:19;;;;;;;8.15;0.73;;;;;;;9.48;60.87;101582.06;10153022;28;20141;-68
2022/04/03 15:41:16;;;;;;;4.07;0.50;;;;;;;8.37;61.91;101603.66;10150698;28;20046;-68
2022/04/03 15:46:13;;;;;;;3.72;0.88;;;;;;;9.67;61.01;101575.84;10143693;28;20173;-68
2022/04/03 15:51:11;;;;;;;3.50;0.68;;;;;;;10.07;60.34;101587.38;10147323;28;20133;-68
2022/04/03 15:56:07;;;;;;;2.67;0.60;;;;;;;9.87;58.06;101564.69;10151481;28;20090;-68
2022/04/03 16:01:04;;;;;;;4.93;1.60;;;;;;;10.72;57.10;101573.94;10151348;28;20135;-68
2022/04/03 16:06:01;;;;;;;7.82;2.40;;;;;;;9.88;60.03;101566.31;10144454;28;20082;-67
2022/04/03 16:10:57;;;;;;;3.40;1.10;;;;;;;10.90;56.41;101563.25;10156332;28;20054;-68
2022/04/03 16:15:57;;;;;;;7.68;1.20;;;;;;;10.36;54.64;101568.19;10154517;28;20140;-68
2022/04/03 16:20:54;;;;;;;3.63;0.88;;;;;;;10.31;55.97;101580.00;10155587;28;20406;-68
2022/04/03 16:25:50;;;;;;;5.03;2.03;;;;;;;10.42;55.49;101563.44;10154443;28;20133;-68
2022/04/03 16:30:48;;;;;;;5.07;1.45;;;;;;;9.99;55.40;101560.72;10152810;28;20587;-68
2022/04/03 16:35:45;;;;;;;5.53;1.00;;;;;;;9.07;69.54;101584.38;10158272;28;20137;-68
2022/04/03 16:40:45;;;;;;;5.00;1.45;;;;;;;8.70;82.92;101584.94;10156861;28;20096;-68
2022/04/03 16:45:47;;;;;;;7.47;2.60;;;;;;;8.30;97.49;101595.00;10152367;28;20081;-68
2022/04/03 16:50:44;;;;;;;7.72;1.70;;;;;;;9.22;90.34;101575.25;10158038;28;20069;-68
2022/04/03 16:55:41;;;;;;;5.22;1.08;;;;;;;8.46;94.16;101585.66;10188376;28;20096;-69
2022/04/03 17:00:40;;;;;;;8.35;2.58;;;;;;;7.80;99.92;101582.16;10164707;28;20078;-68
2022/04/03 17:05:36;;;;;;;5.95;1.48;;;;;;;7.54;100.00;101575.97;10159703;28;21320;-66
2022/04/03 17:10:33;;;;;;;2.33;0.80;;;;;;;7.21;100.00;101598.31;10163273;28;20132;-67
2022/04/03 17:15:29;;;;;;;5.90;1.20;;;;;;;7.00;100.00;101575.78;10169083;28;20107;-67
2022/04/03 17:20:26;;;;;;;5.35;1.17;;;;;;;7.11;100.00;101582.84;10158111;28;20116;-67
2022/04/03 17:25:22;;;;;;;8.10;1.23;;;;;;;7.25;100.00;101577.66;10156994;28;20137;-67
2022/04/03 17:30:23;;;;;;;5.90;1.38;;;;;;;7.03;100.00;101570.63;10159267;28;20058;-67
2022/04/03 17:35:20;;;;;;;4.60;1.08;;;;;;;7.17;100.00;101570.84;10156654;28;20161;-67
2022/04/03 17:40:16;;;;;;;6.43;1.27;;;;;;;6.86;100.00;101565.44;10156377;28;20125;-66
2022/04/03 17:45:13;;;;;;;6.53;1.50;;;;;;;6.68;100.00;101568.69;10150908;28;20058;-67
2022/04/03 17:50:10;;;;;;;7.03;1.30;;;;;;;6.42;100.00;101568.66;10163039;28;20171;-66
2022/04/03 17:55:10;;;;;;;7.20;2.13;;;;;;;6.49;100.00;101566.50;10150592;28;20045;-67
2022/04/03 18:00:09;;;;;;;5.57;1.25;;;;;;;6.43;100.00;101575.75;10156501;28;20053;-67
2022/04/03 18:05:06;;;;;;;5.15;1.23;;;;;;;6.10;100.00;101575.13;10183829;28;20146;-67
2022/04/03 18:10:03;;;;;;;5.30;1.15;;;;;;;5.95;100.00;101585.91;10176836;28;20129;-68
2022/04/03 18:14:59;;;;;;;5.47;1.02;;;;;;;5.77;100.00;101570.06;10174409;28;20057;-67
2022/04/03 18:19:56;;;;;;;6.50;1.27;;;;;;;5.40;100.00;101595.34;10172002;28;20691;-67
2022/04/03 18:24:52;;;;;;;7.07;1.63;;;;;;;5.41;100.00;101578.00;10150568;28;20108;-67
2022/04/03 18:29:52;;;;;;;7.80;2.00;;;;;;;5.39;100.00;101569.31;10160784;28;20077;-67
2022/04/03 18:34:50;;;;;;;6.38;2.03;;;;;;;5.38;100.00;101573.09;10178022;28;20526;-68
2022/04/03 18:39:46;;;;;;;4.90;1.63;;;;;;;5.43;100.00;101571.25;10178332;28;20145;-67
2022/04/03 18:44:44;;;;;;;7.65;1.88;;;;;;;5.50;100.00;101568.31;10182953;28;20104;-67
2022/04/03 18:49:41;;;;;;;7.72;1.98;;;;;;;5.21;100.00;101563.22;10181102;28;20073;-67
2022/04/03 18:54:37;;;;;;;6.20;1.40;;;;;;;5.20;100.00;101552.66;10178495;28;20129;-67
2022/04/03 18:59:35;;;;;;;4.32;1.27;;;;;;;5.33;100.00;101548.66;10173289;28;20712;-67
2022/04/03 19:04:31;;;;;;;7.43;1.30;;;;;;;5.28;100.00;101552.97;10175244;28;20078;-67
2022/04/03 19:09:28;;;;;;;6.60;1.17;;;;;;;5.13;100.00;101558.31;10172322;28;20053;-66
2022/04/03 19:14:25;;;;;;;8.38;1.52;;;;;;;5.21;100.00;101557.81;10172338;28;20050;-67
2022/04/03 19:19:21;;;;;;;6.85;2.25;;;;;;;4.95;100.00;101556.00;10170467;28;20132;-66
2022/04/03 19:24:18;;;;;;;6.20;1.90;;;;;;;4.92;100.00;101542.94;10176549;28;20049;-67
2022/04/03 19:29:15;;;;;;;5.88;1.60;;;;;;;4.85;100.00;101548.63;10165507;28;20511;-67
2022/04/03 19:34:12;;;;;;;8.05;1.83;;;;;;;4.90;100.00;101545.09;10165018;28;20117;-67
2022/04/03 19:39:08;;;;;;;6.30;1.73;;;;;;;4.85;100.00;101537.78;10169722;28;20539;-66
2022/04/03 19:44:05;;;;;;;8.65;2.13;;;;;;;4.90;100.00;101536.97;10178436;28;20471;-66
2022/04/03 19:49:01;;;;;;;7.20;1.70;;;;;;;4.88;100.00;101536.44;10171663;28;20085;-67
2022/04/03 19:53:58;;;;;;;4.68;1.90;;;;;;;4.82;100.00;101528.25;10170404;28;20050;-67
2022/04/03 19:58:55;;;;;;;5.45;1.63;;;;;;;4.68;100.00;101529.75;10164990;28;20054;-66
2022/04/03 20:03:52;;;;;;;9.75;1.50;;;;;;;4.92;100.00;101530.25;10155750;28;20180;-69
2022/04/03 20:08:49;;;;;;;6.38;1.38;;;;;;;4.91;100.00;101530.50;10146153;28;20479;-69
2022/04/03 20:13:51;;;;;;;8.32;1.60;;;;;;;4.72;100.00;101528.19;10158376;28;20667;-69
2022/04/03 20:18:48;;;;;;;4.63;1.35;;;;;;;4.56;100.00;101512.88;10155656;28;20049;-69
2022/04/03 20:23:45;;;;;;;6.70;1.90;;;;;;;4.59;100.00;101505.03;10159807;28;20058;-70
2022/04/03 20:28:45;;;;;;;8.05;2.30;;;;;;;4.47;100.00;101506.31;10178473;28;20550;-68
2022/04/03 20:33:44;;;;;;;6.75;1.83;;;;;;;4.42;100.00;101497.06;10162449;28;20042;-69
2022/04/03 20:38:41;;;;;;;8.80;2.75;;;;;;;4.40;100.00;101499.19;10158911;28;20565;-68
2022/04/03 20:43:40;;;;;;;7.95;1.60;;;;;;;4.41;100.00;101495.44;10171715;28;20463;-67
2022/04/03 20:48:37;;;;;;;11.85;2.28;;;;;;;4.19;100.00;101497.38;10165601;28;20492;-69
2022/04/03 20:53:33;;;;;;;6.38;1.70;;;;;;;4.31;100.00;101495.31;10172487;28;20078;-69
2022/04/03 20:58:30;;;;;;;8.95;1.88;;;;;;;4.31;100.00;101489.09;10174232;28;20736;-69
2022/04/03 21:03:26;;;;;;;12.10;1.83;;;;;;;4.27;100.00;101483.41;10181993;28;20055;-66
2022/04/03 21:08:23;;;;;;;10.40;2.83;;;;;;;4.13;100.00;101487.56;10175490;28;20060;-67
2022/04/03 21:13:19;;;;;;;4.63;1.50;;;;;;;4.16;100.00;101478.94;10170564;28;20085;-68
2022/04/03 21:18:17;;;;;;;9.05;1.65;;;;;;;4.09;100.00;101465.63;10183467;28;20725;-69
2022/04/03 21:23:13;;;;;;;9.25;2.08;;;;;;;4.13;100.00;101471.31;10172447;28;20086;-69
2022/04/03 21:28:10;;;;;;;8.82;1.80;;;;;;;4.06;100.00;101460.72;10181455;28;20492;-69
2022/04/03 21:33:07;;;;;;;5.30;1.50;;;;;;;3.92;100.00;101460.31;10166974;28;20161;-66
2022/04/03 21:38:04;;;;;;;5.47;1.60;;;;;;;3.86;100.00;101449.69;10172270;28;20038;-66
2022/04/03 21:43:00;;;;;;;6.95;1.48;;;;;;;3.97;100.00;101446.84;10179155;28;20050;-67
2022/04/03 21:48:04;;;;;;;5.32;1.33;;;;;;;3.91;100.00;101445.13;10169790;28;20121;-66
2022/04/03 21:53:00;;;;;;;5.97;1.40;;;;;;;3.88;100.00;101437.53;10172360;28;20133;-68
2022/04/03 21:57:57;;;;;;;6.03;2.08;;;;;;;3.89;100.00;101435.66;10170047;28;20137;-68
2022/04/03 22:02:54;;;;;;;7.47;1.50;;;;;;;3.74;100.00;101441.72;10172635;28;20062;-68
2022/04/03 22:07:51;;;;;;;6.88;1.67;;;;;;;3.74;100.00;101430.91;10170967;28;20056;-65
2022/04/03 22:12:47;;;;;;;6.68;1.58;;;;;;;3.72;100.00;101427.63;10167500;28;20512;-67
2022/04/03 22:17:44;;;;;;;5.82;1.67;;;;;;;3.61;100.00;101428.59;10169635;28;20500;-67
2022/04/03 22:22:41;;;;;;;6.95;2.03;;;;;;;3.67;100.00;101414.06;10170463;28;20550;-69
2022/04/03 22:27:40;;;;;;;9.18;1.95;;;;;;;3.58;100.00;101411.81;10170107;28;20121;-69
2022/04/03 22:32:37;;;;;;;9.35;1.95;;;;;;;3.61;100.00;101409.66;10167658;28;20489;-67
2022/04/03 22:37:34;;;;;;;11.25;2.20;;;;;;;3.54;100.00;101407.16;10171070;28;20137;-64
2022/04/03 22:42:31;;;;;;;7.43;1.73;;;;;;;3.57;100.00;101399.38;10175652;28;20487;-65
2022/04/03 22:47:27;;;;;;;7.28;2.30;;;;;;;3.49;100.00;101397.09;10171799;28;20129;-65
2022/04/03 22:52:24;;;;;;;7.63;2.00;;;;;;;3.50;100.00;101393.31;10169539;28;20704;-65